Time;durP1;ratioP1;P1;durP2;ratioP2;P2;SDS_P1;SDS_P2;PMS_P1;PMS_P2;Temp;Humidity;BMP_temperature;BMP_pressure;BME280_temperature;BME280_humidity;BME280_pressure;Samples;Min_cycle;Max_cycle;Signal;HPM_P1;HPM_P2
2023/06/24 00:02:16;;;;;;;11.73;7.45;;;18.80;99.90;;;;;;5031046;28;20136;-71
2023/06/24 00:04:42;;;;;;;9.77;7.35;;;18.80;99.90;;;;;;5031603;28;20427;-73
2023/06/24 00:07:08;;;;;;;12.82;7.70;;;18.80;99.90;;;;;;5030971;28;20029;-71
2023/06/24 00:09:33;;;;;;;14.90;7.03;;;18.70;99.90;;;;;;5030885;28;20370;-73
2023/06/24 00:11:59;;;;;;;10.90;7.07;;;18.70;99.90;;;;;;5031043;28;20444;-71
2023/06/24 00:14:28;;;;;;;10.50;6.40;;;18.60;99.90;;;;;;5030737;28;20057;-72
2023/06/24 00:16:54;;;;;;;11.18;6.72;;;18.60;99.90;;;;;;5030786;28;20088;-72
2023/06/24 00:19:22;;;;;;;12.88;6.85;;;18.60;99.90;;;;;;5031258;28;20022;-72
2023/06/24 00:21:51;;;;;;;8.85;6.40;;;18.50;99.90;;;;;;5030756;28;20104;-73
2023/06/24 00:24:19;;;;;;;14.50;6.75;;;18.50;99.90;;;;;;5030659;28;20542;-71
2023/06/24 00:26:47;;;;;;;14.68;6.70;;;18.40;99.90;;;;;;5030816;28;20033;-73
2023/06/24 00:29:13;;;;;;;8.85;6.53;;;18.40;99.90;;;;;;5030320;28;20045;-72
2023/06/24 00:31:39;;;;;;;10.27;6.70;;;18.40;99.90;;;;;;5031071;28;20463;-72
2023/06/24 00:34:05;;;;;;;9.20;6.15;;;18.30;99.90;;;;;;5030190;28;20537;-73
2023/06/24 00:36:35;;;;;;;15.35;6.97;;;18.30;99.90;;;;;;5030577;28;20108;-72
2023/06/24 00:39:03;;;;;;;11.40;6.55;;;18.30;99.90;;;;;;5046045;28;20087;-72
2023/06/24 00:41:29;;;;;;;12.68;6.45;;;18.20;99.90;;;;;;5030415;28;20489;-72
2023/06/24 00:43:57;;;;;;;9.60;6.63;;;18.10;99.90;;;;;;5030499;28;20059;-72
2023/06/24 00:46:26;;;;;;;11.07;7.05;;;18.00;99.90;;;;;;5030890;28;20486;-72
2023/06/24 00:48:56;;;;;;;12.63;7.32;;;18.10;99.90;;;;;;5030280;28;20109;-71
2023/06/24 00:51:26;;;;;;;13.82;7.38;;;18.00;99.90;;;;;;5030356;28;20033;-71
2023/06/24 00:53:52;;;;;;;13.95;6.82;;;18.00;99.90;;;;;;5030466;28;20546;-73
2023/06/24 00:56:21;;;;;;;11.40;6.97;;;18.00;99.90;;;;;;5030359;28;20044;-72
2023/06/24 00:58:47;;;;;;;12.07;7.00;;;17.90;99.90;;;;;;5030765;28;20013;-72
2023/06/24 01:01:15;;;;;;;8.93;6.18;;;17.90;99.90;;;;;;5030361;28;20057;-72
2023/06/24 01:03:41;;;;;;;9.45;7.03;;;17.90;99.90;;;;;;5030261;28;20037;-72
2023/06/24 01:06:09;;;;;;;9.43;6.35;;;17.90;99.90;;;;;;5030406;28;20095;-72
2023/06/24 01:08:35;;;;;;;;;;;17.80;99.90;;;;;;5030655;28;20467;-73
2023/06/24 01:11:01;;;;;;;10.98;6.70;;;17.70;99.90;;;;;;5030371;28;19935;-71
2023/06/24 01:13:27;;;;;;;16.60;7.63;;;17.60;99.90;;;;;;5030489;28;20120;-72
2023/06/24 01:15:53;;;;;;;10.75;6.32;;;17.60;99.90;;;;;;5045625;28;20112;-71
2023/06/24 01:18:29;;;;;;;10.77;6.40;;;17.50;99.90;;;;;;5029237;28;20052;-71
2023/06/24 01:20:58;;;;;;;9.45;6.35;;;17.50;99.90;;;;;;5030045;28;20114;-72
2023/06/24 01:23:42;;;;;;;11.32;5.78;;;17.50;99.90;;;;;;5029861;28;20467;-72
2023/06/24 01:26:32;;;;;;;10.48;6.65;;;17.50;99.90;;;;;;5030067;28;20079;-71
2023/06/24 01:29:17;;;;;;;13.18;7.10;;;17.40;99.90;;;;;;5029860;28;20553;-71
2023/06/24 01:32:08;;;;;;;9.57;6.10;;;17.30;99.90;;;;;;5030303;28;20083;-72
2023/06/24 01:34:39;;;;;;;11.60;6.32;;;17.30;99.90;;;;;;5027148;28;20479;-71
2023/06/24 01:37:08;;;;;;;9.30;6.18;;;17.30;99.90;;;;;;5067462;28;20527;-72
2023/06/24 01:39:40;;;;;;;10.98;5.97;;;17.30;99.90;;;;;;5055271;28;20040;-72
2023/06/24 01:42:13;;;;;;;14.35;6.70;;;17.20;99.90;;;;;;5060222;28;20044;-72
2023/06/24 01:44:43;;;;;;;8.27;5.25;;;17.20;99.90;;;;;;5068455;28;20036;-72
2023/06/24 01:47:10;;;;;;;12.02;6.05;;;17.20;99.90;;;;;;5072019;28;20028;-73
2023/06/24 01:49:40;;;;;;;9.65;5.80;;;17.20;99.90;;;;;;5073806;28;20422;-72
2023/06/24 01:52:09;;;;;;;14.38;6.15;;;17.20;99.90;;;;;;5073342;28;20091;-72
2023/06/24 01:54:38;;;;;;;8.90;5.28;;;17.10;99.90;;;;;;5073268;28;20091;-71
2023/06/24 01:57:07;;;;;;;8.77;6.20;;;17.10;99.90;;;;;;5073317;28;20037;-71
2023/06/24 01:59:35;;;;;;;12.35;5.45;;;17.00;99.90;;;;;;5073091;28;20086;-70
2023/06/24 02:02:02;;;;;;;9.23;5.80;;;17.00;99.90;;;;;;5071798;28;20159;-71
2023/06/24 02:04:31;;;;;;;10.37;5.87;;;17.00;99.90;;;;;;5074275;28;20024;-71
2023/06/24 02:07:03;;;;;;;8.40;5.70;;;16.90;99.90;;;;;;5073078;28;20485;-71
2023/06/24 02:09:31;;;;;;;8.95;5.75;;;16.90;99.90;;;;;;5073134;28;20448;-70
2023/06/24 02:11:57;;;;;;;;;;;16.80;99.90;;;;;;5073488;28;20037;-71
2023/06/24 02:14:23;;;;;;;11.00;5.93;;;16.80;99.90;;;;;;5072614;28;19946;-71
2023/06/24 02:16:50;;;;;;;8.50;5.97;;;16.70;99.90;;;;;;5072875;28;20378;-71
2023/06/24 02:19:17;;;;;;;9.82;6.40;;;16.70;99.90;;;;;;5073309;28;20457;-70
2023/06/24 02:21:45;;;;;;;8.13;6.03;;;16.70;99.90;;;;;;5072930;28;20119;-71
2023/06/24 02:24:11;;;;;;;8.48;5.88;;;16.70;99.90;;;;;;5072775;28;20115;-72
2023/06/24 02:26:40;;;;;;;14.10;5.97;;;16.60;99.90;;;;;;5072439;28;20351;-71
2023/06/24 02:29:11;;;;;;;15.00;5.88;;;16.60;99.90;;;;;;5071643;28;20031;-71
2023/06/24 02:31:36;;;;;;;8.75;5.97;;;16.60;99.90;;;;;;5073272;28;20326;-71
2023/06/24 02:34:02;;;;;;;12.00;5.97;;;16.50;99.90;;;;;;5072333;28;20029;-71
2023/06/24 02:36:28;;;;;;;10.38;6.38;;;16.50;99.90;;;;;;5072846;28;20115;-72
2023/06/24 02:38:54;;;;;;;13.63;6.00;;;16.50;99.90;;;;;;5072716;28;20025;-71
2023/06/24 02:41:19;;;;;;;8.57;5.43;;;16.50;99.90;;;;;;5072648;28;20033;-72
2023/06/24 02:43:45;;;;;;;10.20;5.35;;;16.40;99.90;;;;;;5072957;28;20024;-71
2023/06/24 02:46:10;;;;;;;11.63;5.57;;;16.50;99.90;;;;;;5072446;28;20029;-71
2023/06/24 02:48:38;;;;;;;10.30;5.55;;;16.50;99.90;;;;;;5072361;28;20040;-71
2023/06/24 02:51:05;;;;;;;;;;;16.40;99.90;;;;;;5071858;28;20024;-72
2023/06/24 02:53:31;;;;;;;10.13;6.20;;;16.40;99.90;;;;;;5072167;28;19912;-74
2023/06/24 02:55:57;;;;;;;11.52;5.95;;;16.40;99.90;;;;;;5072508;28;20025;-72
2023/06/24 02:58:31;;;;;;;8.95;5.90;;;16.30;99.90;;;;;;5072143;28;20033;-72
2023/06/24 03:01:02;;;;;;;9.85;6.10;;;16.40;99.90;;;;;;5070963;28;20029;-72
2023/06/24 03:03:29;;;;;;;11.80;6.07;;;16.40;99.90;;;;;;5072244;28;20115;-72
2023/06/24 03:05:58;;;;;;;12.15;6.60;;;16.30;99.90;;;;;;5070862;28;20040;-72
2023/06/24 03:08:24;;;;;;;6.88;5.30;;;16.30;99.90;;;;;;5070979;28;20037;-71
2023/06/24 03:10:54;;;;;;;8.65;5.32;;;16.20;99.90;;;;;;5071981;28;20024;-72
2023/06/24 03:13:20;;;;;;;10.65;6.20;;;16.30;99.90;;;;;;5071319;28;20025;-70
2023/06/24 03:15:46;;;;;;;9.98;5.85;;;16.20;99.90;;;;;;5071826;28;20091;-71
2023/06/24 03:18:11;;;;;;;11.48;6.13;;;16.20;99.90;;;;;;5071956;28;20413;-71
2023/06/24 03:20:38;;;;;;;12.90;6.10;;;16.20;99.90;;;;;;5071962;28;20086;-71
2023/06/24 03:23:07;;;;;;;8.23;5.97;;;16.20;99.90;;;;;;5070489;28;20275;-70
2023/06/24 03:25:34;;;;;;;8.30;6.70;;;16.10;99.90;;;;;;5071335;28;20129;-71
2023/06/24 03:28:07;;;;;;;9.13;5.57;;;16.10;99.90;;;;;;5071710;28;20039;-71
2023/06/24 03:30:33;;;;;;;11.35;5.90;;;16.00;99.90;;;;;;5071465;28;20064;-71
2023/06/24 03:32:58;;;;;;;9.32;5.80;;;16.10;99.90;;;;;;5071554;28;20124;-72
2023/06/24 03:35:24;;;;;;;10.80;5.40;;;16.10;99.90;;;;;;5071656;28;20039;-71
2023/06/24 03:37:50;;;;;;;7.82;5.70;;;16.10;99.90;;;;;;5070264;28;20134;-71
2023/06/24 03:40:17;;;;;;;13.93;5.72;;;16.10;99.90;;;;;;5070732;28;20113;-71
2023/06/24 03:42:42;;;;;;;9.93;5.70;;;16.00;99.90;;;;;;5071399;28;20043;-71
2023/06/24 03:45:08;;;;;;;11.27;5.78;;;16.00;99.90;;;;;;5071338;28;20028;-71
2023/06/24 03:47:34;;;;;;;9.75;5.85;;;16.00;99.90;;;;;;5071087;28;20033;-71
2023/06/24 03:49:59;;;;;;;10.18;6.25;;;16.00;99.90;;;;;;5071057;28;20101;-69
2023/06/24 03:52:25;;;;;;;7.13;5.55;;;16.00;99.90;;;;;;5070577;28;20087;-71
2023/06/24 03:54:51;;;;;;;10.43;6.18;;;16.00;99.90;;;;;;5071073;28;20017;-70
2023/06/24 03:57:17;;;;;;;11.10;6.05;;;15.90;99.90;;;;;;5070165;28;20032;-71
2023/06/24 03:59:43;;;;;;;12.82;7.40;;;16.00;99.90;;;;;;5070872;28;20040;-71
2023/06/24 04:02:09;;;;;;;13.93;5.93;;;16.00;99.90;;;;;;5071161;28;20040;-71
2023/06/24 04:04:37;;;;;;;10.15;6.25;;;16.00;99.90;;;;;;5071331;28;20397;-70
2023/06/24 04:07:05;;;;;;;9.43;6.07;;;16.00;99.90;;;;;;5071026;28;20029;-71
2023/06/24 04:09:35;;;;;;;11.90;6.15;;;15.90;99.90;;;;;;5070076;28;20025;-71
2023/06/24 04:12:01;;;;;;;10.65;6.43;;;16.00;99.90;;;;;;5070851;28;20029;-71
2023/06/24 04:14:28;;;;;;;9.02;5.97;;;16.00;99.90;;;;;;5070741;28;20067;-71
2023/06/24 04:16:54;;;;;;;9.40;5.32;;;16.10;99.90;;;;;;5070765;28;20054;-72
2023/06/24 04:19:19;;;;;;;9.77;5.53;;;16.10;99.90;;;;;;5071102;28;20447;-70
2023/06/24 04:21:45;;;;;;;7.80;5.97;;;16.10;99.90;;;;;;5070472;28;20047;-71
2023/06/24 04:24:11;;;;;;;8.10;5.85;;;16.10;99.90;;;;;;5070514;28;20090;-72
2023/06/24 04:26:36;;;;;;;12.40;6.10;;;16.30;99.90;;;;;;5070433;28;20029;-72
2023/06/24 04:29:02;;;;;;;10.30;5.82;;;16.20;99.90;;;;;;5069531;28;20111;-71
2023/06/24 04:31:28;;;;;;;12.20;6.57;;;16.30;99.90;;;;;;5070627;28;20050;-71
2023/06/24 04:33:54;;;;;;;8.50;5.78;;;16.30;99.90;;;;;;5070621;28;20139;-71
2023/06/24 04:36:19;;;;;;;9.27;6.47;;;16.30;99.90;;;;;;5069395;28;20025;-71
2023/06/24 04:38:45;;;;;;;10.85;6.63;;;16.40;99.90;;;;;;5070434;28;20032;-72
2023/06/24 04:41:11;;;;;;;10.52;5.90;;;16.40;99.90;;;;;;5070815;28;20070;-71
2023/06/24 04:43:36;;;;;;;10.77;6.10;;;16.40;99.90;;;;;;5071108;28;20319;-70
2023/06/24 04:46:02;;;;;;;12.50;5.88;;;16.50;99.90;;;;;;5070504;28;20024;-70
2023/06/24 04:48:28;;;;;;;8.63;5.60;;;16.50;99.90;;;;;;5069273;28;20044;-71
2023/06/24 04:50:54;;;;;;;10.75;5.80;;;16.50;99.90;;;;;;5070369;28;20073;-71
2023/06/24 04:53:21;;;;;;;11.02;6.15;;;16.60;99.90;;;;;;5070126;28;20075;-70
2023/06/24 04:55:46;;;;;;;9.82;6.10;;;16.60;99.90;;;;;;5070724;28;20032;-70
2023/06/24 04:58:12;;;;;;;11.45;6.30;;;16.60;99.90;;;;;;5070266;28;20040;-70
2023/06/24 05:00:38;;;;;;;9.00;6.07;;;16.80;99.90;;;;;;5070304;28;20032;-71
2023/06/24 05:03:04;;;;;;;15.15;6.18;;;16.80;99.90;;;;;;5070458;28;20067;-71
2023/06/24 05:05:30;;;;;;;8.68;6.47;;;16.90;99.90;;;;;;5069205;28;20423;-69
2023/06/24 05:07:55;;;;;;;12.48;6.35;;;16.90;99.90;;;;;;5070240;28;20073;-71
2023/06/24 05:10:21;;;;;;;9.35;6.28;;;16.90;99.90;;;;;;5070948;28;20027;-70
2023/06/24 05:12:47;;;;;;;10.80;6.28;;;17.00;99.90;;;;;;5070037;28;20029;-70
2023/06/24 05:15:12;;;;;;;11.65;6.97;;;17.10;99.90;;;;;;5069048;28;20021;-70
2023/06/24 05:17:39;;;;;;;14.45;7.10;;;17.20;99.90;;;;;;5070107;28;20037;-70
2023/06/24 05:20:06;;;;;;;19.38;7.97;;;17.30;99.90;;;;;;5070271;28;20035;-69
2023/06/24 05:22:31;;;;;;;17.67;7.88;;;17.30;99.90;;;;;;5074699;28;20104;-70
2023/06/24 05:24:57;;;;;;;12.45;6.85;;;17.40;99.90;;;;;;5073937;28;20127;-71
2023/06/24 05:27:23;;;;;;;14.02;7.45;;;17.40;99.90;;;;;;5073901;28;20487;-71
2023/06/24 05:29:48;;;;;;;14.45;8.02;;;17.60;99.90;;;;;;5073757;28;20355;-71
2023/06/24 05:32:14;;;;;;;12.38;7.80;;;17.60;99.90;;;;;;5073666;28;20109;-71
2023/06/24 05:34:40;;;;;;;16.35;7.65;;;17.70;99.90;;;;;;5074193;28;20361;-71
2023/06/24 05:37:05;;;;;;;13.80;8.13;;;17.70;99.90;;;;;;5073760;28;20090;-71
2023/06/24 05:39:31;;;;;;;10.32;7.55;;;17.70;99.90;;;;;;5073701;28;20371;-71
2023/06/24 05:41:57;;;;;;;18.58;8.38;;;17.90;99.90;;;;;;5073542;28;20063;-71
2023/06/24 05:44:23;;;;;;;16.73;8.43;;;17.90;99.90;;;;;;5073674;28;20065;-71
2023/06/24 05:46:49;;;;;;;14.20;8.35;;;17.90;99.90;;;;;;5074328;28;20056;-72
2023/06/24 05:49:14;;;;;;;14.85;7.93;;;17.90;99.90;;;;;;5073741;28;20063;-71
2023/06/24 05:51:40;;;;;;;13.50;8.32;;;18.00;99.90;;;;;;5073396;28;20518;-71
2023/06/24 05:54:07;;;;;;;15.13;8.43;;;18.00;99.90;;;;;;5073321;28;20048;-72
2023/06/24 05:56:33;;;;;;;13.10;7.77;;;18.00;99.90;;;;;;5073359;28;20459;-71
2023/06/24 06:02:21;;;;;;;15.13;7.95;;;18.10;99.90;;;;;;5072429;28;20035;-71
2023/06/24 06:04:47;;;;;;;12.65;8.00;;;18.30;99.90;;;;;;5073581;28;20024;-73
2023/06/24 06:07:13;;;;;;;16.25;8.68;;;18.40;99.90;;;;;;5072144;28;20134;-73
2023/06/24 06:09:39;;;;;;;14.23;7.53;;;18.50;99.90;;;;;;5073176;28;20055;-72
2023/06/24 06:12:05;;;;;;;15.88;9.00;;;18.60;99.90;;;;;;5072113;28;20038;-71
2023/06/24 06:14:30;;;;;;;16.02;9.15;;;18.70;99.90;;;;;;5072903;28;20123;-73
2023/06/24 06:16:56;;;;;;;18.83;10.77;;;18.80;99.90;;;;;;5071870;28;20113;-73
2023/06/24 06:19:22;;;;;;;17.45;9.00;;;18.80;99.90;;;;;;5073347;28;20028;-71
2023/06/24 06:21:49;;;;;;;14.50;9.25;;;18.80;99.90;;;;;;5073068;28;20434;-73
2023/06/24 06:24:15;;;;;;;16.10;10.27;;;18.80;99.90;;;;;;5072782;28;20056;-72
2023/06/24 06:26:43;;;;;;;13.82;8.38;;;18.80;99.90;;;;;;5073062;28;20122;-72
2023/06/24 06:29:09;;;;;;;20.17;8.30;;;18.90;99.90;;;;;;5071561;28;20048;-73
2023/06/24 06:31:35;;;;;;;12.27;6.88;;;19.00;99.90;;;;;;5072787;28;20382;-74
2023/06/24 06:34:01;;;;;;;11.25;6.70;;;18.90;99.90;;;;;;5062814;28;20443;-72
2023/06/24 06:36:27;;;;;;;15.45;7.28;;;19.00;99.90;;;;;;5053902;28;20033;-73
2023/06/24 06:38:53;;;;;;;11.95;6.30;;;19.00;99.90;;;;;;5052561;28;20570;-72
2023/06/24 06:41:24;;;;;;;11.02;6.07;;;19.10;99.90;;;;;;5053473;28;20055;-73
2023/06/24 06:43:50;;;;;;;8.45;5.95;;;19.20;99.90;;;;;;5053335;28;20079;-74
2023/06/24 06:46:16;;;;;;;11.73;5.57;;;19.30;99.90;;;;;;5086982;28;20024;-74
2023/06/24 06:48:42;;;;;;;12.50;7.00;;;19.30;99.90;;;;;;5052059;28;20467;-76
2023/06/24 06:51:07;;;;;;;14.90;5.65;;;19.40;99.90;;;;;;5053456;28;20059;-72
2023/06/24 06:53:33;;;;;;;11.35;5.78;;;19.40;99.90;;;;;;5053196;28;20405;-71
2023/06/24 06:55:58;;;;;;;11.20;5.70;;;19.50;99.90;;;;;;5053606;28;20040;-72
2023/06/24 06:58:24;;;;;;;12.05;6.05;;;19.60;99.90;;;;;;5053700;28;20079;-73
2023/06/24 07:00:50;;;;;;;12.60;6.22;;;19.60;99.90;;;;;;5052795;28;20029;-71
2023/06/24 07:03:16;;;;;;;7.40;5.13;;;19.60;99.90;;;;;;5052553;28;20124;-72
2023/06/24 07:05:42;;;;;;;13.25;5.90;;;19.60;99.90;;;;;;5052971;28;20139;-71
2023/06/24 07:08:07;;;;;;;8.05;5.20;;;19.70;99.90;;;;;;5052748;28;20487;-72
2023/06/24 07:10:33;;;;;;;8.07;5.32;;;19.80;99.90;;;;;;5053361;28;20025;-73
2023/06/24 07:12:59;;;;;;;9.60;5.20;;;19.80;99.90;;;;;;5052850;28;20029;-71
2023/06/24 07:15:28;;;;;;;8.52;5.30;;;19.90;99.90;;;;;;5053016;28;20463;-73
2023/06/24 07:17:54;;;;;;;8.82;5.20;;;20.10;99.90;;;;;;5052704;28;20077;-72
2023/06/24 07:20:21;;;;;;;10.35;4.80;;;20.30;99.50;;;;;;5053175;28;20110;-72
2023/06/24 07:22:46;;;;;;;11.18;4.65;;;20.40;98.50;;;;;;5052421;28;20025;-71
2023/06/24 07:25:12;;;;;;;10.75;4.78;;;20.50;99.10;;;;;;5052527;28;20033;-73
2023/06/24 07:27:38;;;;;;;8.73;4.43;;;20.60;99.10;;;;;;5053141;28;20490;-72
2023/06/24 07:30:05;;;;;;;8.63;4.72;;;20.70;98.30;;;;;;5052745;28;20518;-71
2023/06/24 07:32:31;;;;;;;9.30;4.53;;;20.70;98.10;;;;;;5052625;28;20040;-71
2023/06/24 07:34:59;;;;;;;6.68;4.30;;;20.70;98.20;;;;;;5053146;28;20031;-71
2023/06/24 07:37:25;;;;;;;11.30;4.95;;;20.70;98.20;;;;;;5041048;28;20030;-71
2023/06/24 07:39:51;;;;;;;5.82;3.88;;;20.80;98.90;;;;;;5032962;28;20118;-72
2023/06/24 07:42:18;;;;;;;5.75;3.55;;;20.80;96.80;;;;;;5048777;28;20368;-72
2023/06/24 07:44:48;;;;;;;10.55;3.60;;;20.80;96.60;;;;;;5047990;28;20041;-70
2023/06/24 07:47:14;;;;;;;9.27;3.78;;;20.90;96.40;;;;;;5048018;28;20118;-71
2023/06/24 07:49:40;;;;;;;8.82;3.60;;;21.00;97.10;;;;;;5033206;28;20025;-71
2023/06/24 07:52:06;;;;;;;6.28;3.42;;;21.10;95.60;;;;;;5048488;28;20026;-69
2023/06/24 07:54:32;;;;;;;4.57;3.08;;;21.20;95.60;;;;;;5048266;28;20040;-70
2023/06/24 07:56:58;;;;;;;8.57;3.13;;;21.20;94.50;;;;;;5047532;28;20029;-72
2023/06/24 07:59:30;;;;;;;5.68;3.50;;;21.40;94.10;;;;;;5048089;28;20041;-75
2023/06/24 08:01:56;;;;;;;4.68;3.17;;;21.40;94.30;;;;;;5048195;28;20036;-72
2023/06/24 08:04:22;;;;;;;4.65;3.25;;;21.60;94.50;;;;;;5049719;28;20280;-69
2023/06/24 08:06:47;;;;;;;7.43;3.30;;;21.80;93.80;;;;;;5032609;28;20486;-69
2023/06/24 08:09:13;;;;;;;7.78;2.75;;;21.90;93.40;;;;;;5032366;28;20057;-70
2023/06/24 08:11:39;;;;;;;5.35;3.28;;;22.00;94.00;;;;;;5032592;28;20086;-70
2023/06/24 08:14:05;;;;;;;8.55;3.28;;;22.30;93.70;;;;;;5032429;28;20451;-70
2023/06/24 08:16:31;;;;;;;8.88;3.38;;;22.50;94.00;;;;;;5047595;28;20117;-69
2023/06/24 08:18:57;;;;;;;11.02;3.38;;;22.60;93.10;;;;;;5031307;28;20088;-73
2023/06/24 08:21:23;;;;;;;7.00;2.58;;;22.70;92.10;;;;;;5032062;28;20033;-69
2023/06/24 08:23:50;;;;;;;5.13;2.95;;;22.60;91.60;;;;;;5031825;28;20044;-70
2023/06/24 08:26:16;;;;;;;6.00;3.63;;;22.60;92.10;;;;;;5046741;28;20052;-71
2023/06/24 08:28:41;;;;;;;8.57;3.67;;;22.80;92.00;;;;;;5031843;28;20464;-70
2023/06/24 08:31:07;;;;;;;3.85;2.90;;;22.80;92.00;;;;;;5046600;28;20145;-71
2023/06/24 08:33:33;;;;;;;5.95;2.88;;;22.90;91.90;;;;;;5046157;28;20308;-70
2023/06/24 08:36:01;;;;;;;6.20;3.25;;;23.00;91.90;;;;;;5031043;28;20037;-72
2023/06/24 08:38:27;;;;;;;8.18;3.35;;;23.20;91.90;;;;;;5046171;28;20380;-71
2023/06/24 08:40:52;;;;;;;6.18;3.65;;;23.60;92.00;;;;;;5030614;28;20057;-71
2023/06/24 08:43:18;;;;;;;7.70;3.88;;;23.60;91.10;;;;;;5031763;28;20037;-70
2023/06/24 08:45:45;;;;;;;7.30;3.38;;;23.90;92.30;;;;;;5031045;28;20521;-71
2023/06/24 08:48:13;;;;;;;4.43;3.30;;;24.40;91.10;;;;;;5030863;28;20348;-70
2023/06/24 08:50:46;;;;;;;5.93;3.72;;;25.20;91.50;;;;;;5031138;28;20030;-69
2023/06/24 08:53:13;;;;;;;5.38;3.30;;;25.70;88.20;;;;;;5030386;28;20060;-70
2023/06/24 08:55:45;;;;;;;7.45;3.42;;;26.10;87.90;;;;;;5030594;28;20351;-72
2023/06/24 08:58:11;;;;;;;4.68;3.28;;;26.80;89.20;;;;;;5022015;28;20091;-71
2023/06/24 09:00:37;;;;;;;6.72;3.53;;;27.00;84.40;;;;;;5030510;28;20092;-71
2023/06/24 09:03:03;;;;;;;11.77;5.55;;;27.70;84.40;;;;;;5045834;28;20033;-71
2023/06/24 09:05:28;;;;;;;6.93;4.45;;;28.00;83.70;;;;;;5030322;28;20037;-70
2023/06/24 09:07:55;;;;;;;8.25;4.55;;;28.40;81.30;;;;;;5045808;28;20380;-71
2023/06/24 09:10:35;;;;;;;5.53;3.17;;;28.10;80.20;;;;;;5031068;28;20029;-70
2023/06/24 09:13:01;;;;;;;4.78;2.95;;;27.80;80.40;;;;;;5030176;28;20414;-70
2023/06/24 09:15:37;;;;;;;3.67;2.83;;;28.30;78.50;;;;;;5030322;28;20519;-70
2023/06/24 09:18:04;;;;;;;4.78;3.33;;;28.20;79.90;;;;;;5030377;28;20095;-70
2023/06/24 09:20:31;;;;;;;8.10;3.10;;;28.00;79.70;;;;;;5029083;28;20107;-70
2023/06/24 09:23:02;;;;;;;4.63;3.10;;;28.30;78.20;;;;;;5030291;28;20411;-71
2023/06/24 09:25:29;;;;;;;7.47;3.15;;;28.20;79.10;;;;;;5031118;28;20103;-71
2023/06/24 09:27:58;;;;;;;5.43;3.13;;;27.90;80.00;;;;;;5030127;28;20571;-72
2023/06/24 09:30:25;;;;;;;5.53;3.47;;;27.80;80.30;;;;;;5030130;28;20428;-71
2023/06/24 09:32:52;;;;;;;5.90;3.30;;;28.00;78.40;;;;;;5030603;28;20057;-70
2023/06/24 09:35:21;;;;;;;5.72;3.30;;;27.70;78.90;;;;;;5030305;28;20065;-71
2023/06/24 09:37:53;;;;;;;7.05;2.95;;;27.50;79.80;;;;;;5046473;28;20083;-71
2023/06/24 09:40:20;;;;;;;4.68;3.08;;;27.50;80.10;;;;;;5037127;28;20042;-71
2023/06/24 09:42:50;;;;;;;6.27;3.37;;;27.30;79.50;;;;;;5029100;28;20386;-70
2023/06/24 09:45:21;;;;;;;4.53;2.92;;;27.20;77.80;;;;;;5029093;28;20022;-71
2023/06/24 09:47:47;;;;;;;10.65;3.33;;;27.10;78.50;;;;;;5045655;28;20040;-70
2023/06/24 09:50:12;;;;;;;5.82;2.80;;;27.10;79.30;;;;;;5030331;28;20105;-71
2023/06/24 09:52:39;;;;;;;3.17;2.47;;;26.90;79.30;;;;;;5030743;28;20555;-71
2023/06/24 09:55:06;;;;;;;5.65;2.50;;;27.20;79.80;;;;;;5030023;28;20034;-70
2023/06/24 09:57:35;;;;;;;6.43;3.15;;;27.40;79.10;;;;;;5045547;28;20443;-70
2023/06/24 10:00:01;;;;;;;5.63;3.15;;;27.50;79.50;;;;;;5029948;28;20083;-69
2023/06/24 10:02:30;;;;;;;9.10;3.20;;;27.60;80.10;;;;;;5045413;28;20033;-71
2023/06/24 10:04:56;;;;;;;7.43;2.75;;;27.70;79.10;;;;;;5045439;28;20030;-72
2023/06/24 10:07:22;;;;;;;4.47;2.70;;;27.50;77.90;;;;;;5063302;28;20099;-70
2023/06/24 10:09:48;;;;;;;4.57;2.95;;;27.20;78.60;;;;;;5033621;28;20120;-71
2023/06/24 10:12:14;;;;;;;10.43;3.75;;;27.30;78.90;;;;;;5033432;28;20053;-70
2023/06/24 10:14:40;;;;;;;5.53;3.13;;;27.40;79.70;;;;;;5032247;28;20443;-70
2023/06/24 10:17:06;;;;;;;5.53;3.60;;;27.50;79.20;;;;;;5032836;28;20044;-70
2023/06/24 10:19:39;;;;;;;6.22;2.63;;;27.30;78.80;;;;;;5049494;28;20032;-71
2023/06/24 10:22:10;;;;;;;4.32;2.80;;;27.10;80.00;;;;;;5033585;28;20056;-70
2023/06/24 10:24:39;;;;;;;5.30;3.40;;;27.30;80.40;;;;;;5033240;28;20030;-70
2023/06/24 10:27:13;;;;;;;6.75;4.25;;;27.40;80.10;;;;;;5048530;28;20030;-71
2023/06/24 10:29:39;;;;;;;3.15;2.80;;;27.40;79.00;;;;;;5032895;28;20065;-71
2023/06/24 10:32:09;;;;;;;4.53;3.03;;;27.30;78.90;;;;;;5032797;28;20076;-70
2023/06/24 10:34:38;;;;;;;10.13;3.90;;;27.40;79.30;;;;;;5033349;28;20544;-70
2023/06/24 10:37:18;;;;;;;4.32;3.05;;;27.40;80.60;;;;;;5033193;28;20029;-70
2023/06/24 10:39:48;;;;;;;3.67;3.25;;;27.40;79.30;;;;;;5032679;28;20057;-70
2023/06/24 10:42:23;;;;;;;6.07;3.38;;;27.40;79.90;;;;;;5032661;28;20041;-70
2023/06/24 10:44:50;;;;;;;4.68;3.10;;;27.60;79.90;;;;;;5032696;28;20037;-70
2023/06/24 10:47:16;;;;;;;4.85;3.35;;;27.40;80.20;;;;;;5032579;28;20026;-71
2023/06/24 10:49:42;;;;;;;3.15;2.85;;;27.30;80.20;;;;;;5033044;28;20359;-70
2023/06/24 10:52:12;;;;;;;5.13;2.88;;;27.50;79.70;;;;;;5032472;28;20044;-70
2023/06/24 10:54:39;;;;;;;5.22;2.78;;;27.60;77.90;;;;;;5032431;28;20052;-69
2023/06/24 10:57:05;;;;;;;3.70;2.80;;;27.40;78.30;;;;;;5048204;28;20460;-70
2023/06/24 10:59:49;;;;;;;5.20;3.05;;;27.20;78.50;;;;;;5032369;28;20033;-70
2023/06/24 11:02:16;;;;;;;6.30;3.05;;;27.20;79.20;;;;;;5032276;28;20471;-70
2023/06/24 11:04:50;;;;;;;3.53;3.08;;;27.20;79.40;;;;;;5032716;28;20082;-71
2023/06/24 11:07:21;;;;;;;11.98;3.45;;;27.40;79.30;;;;;;5032673;28;20119;-71
2023/06/24 11:09:50;;;;;;;5.20;3.00;;;27.60;79.70;;;;;;5032227;28;20279;-70
2023/06/24 11:12:16;;;;;;;5.93;3.20;;;27.50;78.80;;;;;;5046800;28;20537;-69
2023/06/24 11:14:42;;;;;;;6.72;3.15;;;27.50;78.60;;;;;;5053236;28;20040;-70
2023/06/24 11:17:08;;;;;;;4.40;3.08;;;27.50;78.40;;;;;;5053093;28;20021;-71
2023/06/24 11:19:38;;;;;;;5.63;2.88;;;27.60;78.30;;;;;;5052047;28;20358;-70
2023/06/24 11:22:05;;;;;;;4.07;3.20;;;27.80;78.70;;;;;;5052973;28;20366;-71
2023/06/24 11:24:31;;;;;;;5.57;3.67;;;27.80;79.30;;;;;;5052845;28;20114;-71
2023/06/24 11:26:57;;;;;;;5.50;2.95;;;27.70;78.50;;;;;;5052660;28;20068;-71
2023/06/24 11:29:23;;;;;;;5.53;3.05;;;27.50;79.10;;;;;;5051587;28;20120;-70
2023/06/24 11:31:50;;;;;;;9.93;3.05;;;27.60;79.00;;;;;;5053244;28;20041;-70
2023/06/24 11:34:16;;;;;;;27.15;6.50;;;27.60;79.50;;;;;;5052966;28;20451;-70
2023/06/24 11:36:42;;;;;;;7.00;2.97;;;27.60;80.00;;;;;;5051729;28;20370;-71
2023/06/24 11:39:08;;;;;;;8.05;3.58;;;27.60;79.70;;;;;;5052713;28;20029;-70
2023/06/24 11:41:34;;;;;;;8.43;3.15;;;27.80;80.90;;;;;;5052305;28;20041;-71
2023/06/24 11:44:00;;;;;;;5.45;3.42;;;27.80;80.80;;;;;;5052796;28;20034;-71
2023/06/24 11:46:36;;;;;;;5.88;3.53;;;27.90;78.70;;;;;;5052992;28;20394;-70
2023/06/24 11:49:06;;;;;;;4.90;2.80;;;27.80;77.90;;;;;;5052438;28;20106;-71
2023/06/24 11:51:32;;;;;;;8.23;3.08;;;27.70;79.20;;;;;;5052399;28;20036;-70
2023/06/24 11:54:05;;;;;;;4.75;3.03;;;27.70;78.60;;;;;;5052264;28;20075;-71
2023/06/24 11:56:39;;;;;;;7.68;3.28;;;27.70;78.70;;;;;;5051877;28;20071;-69
2023/06/24 11:59:05;;;;;;;4.97;3.70;;;27.70;79.10;;;;;;5051200;28;20064;-70
2023/06/24 12:01:37;;;;;;;5.13;3.00;;;27.60;78.30;;;;;;5051674;28;20478;-70
2023/06/24 12:04:13;;;;;;;4.72;2.90;;;27.60;80.00;;;;;;5052344;28;20244;-71
2023/06/24 12:06:44;;;;;;;6.70;3.22;;;27.70;79.20;;;;;;5052370;28;20029;-71
2023/06/24 12:09:10;;;;;;;9.32;4.18;;;27.50;79.40;;;;;;5052194;28;20029;-70
2023/06/24 12:11:36;;;;;;;4.97;3.38;;;27.60;79.60;;;;;;5050819;28;20462;-71
2023/06/24 12:14:02;;;;;;;3.92;3.03;;;27.30;78.60;;;;;;5052172;28;20029;-71
2023/06/24 12:16:29;;;;;;;7.20;3.95;;;27.40;78.90;;;;;;5052604;28;20021;-72
2023/06/24 12:18:54;;;;;;;5.60;3.60;;;27.40;79.50;;;;;;5050669;28;20033;-76
2023/06/24 12:21:20;;;;;;;7.40;3.60;;;27.40;79.30;;;;;;5052212;28;20032;-71
2023/06/24 12:23:46;;;;;;;5.50;3.28;;;27.50;79.10;;;;;;5051716;28;20025;-72
2023/06/24 12:26:12;;;;;;;9.88;4.28;;;27.50;79.60;;;;;;5051767;28;20025;-70
2023/06/24 12:28:40;;;;;;;11.43;4.18;;;27.60;78.50;;;;;;5052094;28;20419;-73
2023/06/24 12:31:06;;;;;;;8.85;3.45;;;27.50;79.80;;;;;;5050864;28;20052;-72
2023/06/24 12:33:31;;;;;;;8.27;3.65;;;27.40;79.30;;;;;;5051581;28;20382;-75
2023/06/24 12:35:58;;;;;;;6.43;3.33;;;27.40;79.40;;;;;;5051438;28;20037;-72
2023/06/24 12:38:24;;;;;;;5.47;3.67;;;27.20;79.30;;;;;;5051275;28;20386;-73
2023/06/24 12:40:49;;;;;;;10.40;3.50;;;27.30;79.40;;;;;;5050835;28;20115;-76
2023/06/24 12:43:15;;;;;;;6.82;3.80;;;27.30;78.80;;;;;;5051462;28;20017;-72
2023/06/24 12:45:43;;;;;;;10.27;4.72;;;27.30;79.20;;;;;;5050804;28;20475;-72
2023/06/24 12:48:12;;;;;;;;;;;27.40;79.40;;;;;;5049851;28;20037;-71